This is the latest recevied weather packets stored in our database for station/object SALIDA. If no packets are shown the sender has not sent any weather packets the latest 10 day(s).
| Time | Temp. | Humidity | Pressure | Rain* | Wind** | Luminosity | Snow |
|---|---|---|---|---|---|---|---|
| 1778004085 | 9.44° C | 60% | 997.7 hPa | 0 mm | - | - | - |
| 1778003185 | 10° C | 58% | 997.7 hPa | 0 mm | - | - | - |
| 1778002285 | 10° C | 58% | 997.7 hPa | 0 mm | - | - | - |
| 1778001385 | 10° C | 56% | 998.4 hPa | 0 mm | - | - | - |
| 1778000485 | 10.56° C | 57% | 998.5 hPa | 0 mm | - | - | - |
| 1777999585 | 9.44° C | 59% | 998.7 hPa | 0 mm | - | - | - |
| 1777998685 | 8.33° C | 62% | 999.1 hPa | 0 mm | - | - | - |
| 1777997785 | 8.89° C | 61% | 999 hPa | 0 mm | - | - | - |
| 1777996885 | 8.89° C | 60% | 999 hPa | 0 mm | - | - | - |
| 1777995985 | 8.89° C | 62% | 999.1 hPa | 0 mm | - | - | - |
| 1777995085 | 8.33° C | 64% | 999.3 hPa | 0 mm | - | - | - |
| 1777994185 | 8.33° C | 64% | 999.4 hPa | 0 mm | - | - | - |
| 1777993285 | 8.33° C | 65% | 999.5 hPa | 0 mm | - | - | - |
| 1777992385 | 7.78° C | 67% | 999.8 hPa | 0 mm | - | - | - |
| 1777991485 | 7.78° C | 67% | 999.9 hPa | 0 mm | - | - | - |
| 1777990585 | 7.22° C | 68% | 1000.1 hPa | 0 mm | - | - | - |
| 1777989685 | 7.78° C | 68% | 1000.3 hPa | 0 mm | - | - | - |
| 1777988785 | 7.22° C | 68% | 1000.2 hPa | 0 mm | - | - | - |
| 1777987886 | 7.22° C | 69% | 1000 hPa | 0 mm | - | - | - |
| 1777986986 | 7.22° C | 69% | 1000.1 hPa | 0 mm | - | - | - |
| 1777986086 | 7.22° C | 69% | 1000.1 hPa | 0 mm | - | - | - |
| 1777985186 | 7.22° C | 69% | 999.8 hPa | 0 mm | - | - | - |
| 1777984286 | 7.22° C | 68% | 999.9 hPa | 0 mm | - | - | - |
| 1777983386 | 7.22° C | 68% | 999.6 hPa | 0 mm | - | - | - |
| 1777982486 | 7.22° C | 67% | 999.6 hPa | 0 mm | - | - | - |
* Rain latest hour (hover to see other rain measurements)
** Current wind speed in m/s (hover to see current wind gust speed)